KFWA

Fort Wayne International Airport

Fort Wayne, Indiana, USA
METAR KFWA 141254Z 24004KT 7SM SCT050 21/21 A3003 RMK AO2 SLP166 T02110206 $
Observed Flight Rules
Aug-14 @ 12:54 UTC (48 minutes ago) Visual Flight Rules
Wind Visibility Clouds
240° at 4 knots 7 miles
  • Scattered at 5,000' AGL
Temperatures Readings
Current 21°C / 70°F
Dewpoint 21°C / 70°F
Humidity 100%
Altimeter 30.03" Hg
Pressure 1016.6 hPa
Elevation 248
METAR KFWA 141254Z 24004KT 7SM SCT050 21/21 A3003 RMK AO2 SLP166 T02110206 $
Observed Flight Rules
Aug-14 @ 12:54 UTC
(48 minutes ago)
VFR
Wind Visibility
240° at 4 knots 7 miles
Clouds
  • Scattered at 5,000' AGL
Temperature Dewpoint
21°C / 70°F 21°C / 70°F
Humidity Altimeter Pressure
100% 30.03" Hg 1016.6 hPa